Iron Springs, Canada
Current Conditions -  °F | °C
As of 6:00 PM on Thursday 18 Dec 2014 (Local Time) from CYQL Reporting Station
Broken Clouds Broken Clouds  
Wind Chill: 27°   Ceiling: 11000
Heat Index: 37°   Visibility: 15mi
Dew Point: 28°   Wind: 18mph
Humidity: 70%   Direction: 240°WSW
Pressure: 29.83"   Gusts: NA
Location:  49.93°N, 112.69°W
Report Text: CYQL 190100Z 24016KT 15SM BKN110 03/M02 A2983 RMK AC6 SLP135
Loading
Personal Weather Stations






























Interactive Weather Map New forecast layout! Learn more

10-Day Weather Forecast

Advertisements
Track Severe Weather on mobile